createdAt,value
2022-12-15T00:00:10.682Z,1001.82
2022-12-15T00:01:10.738Z,1001.79
2022-12-15T00:02:10.706Z,1001.79
2022-12-15T00:03:10.862Z,1001.78
2022-12-15T00:04:10.658Z,1001.78
2022-12-15T00:05:10.658Z,1001.77
2022-12-15T00:06:10.668Z,1001.80
2022-12-15T00:07:10.638Z,1001.79
2022-12-15T00:08:10.643Z,1001.76
2022-12-15T00:09:14.228Z,1001.82
2022-12-15T00:10:10.618Z,1001.77
2022-12-15T00:11:10.609Z,1001.82
2022-12-15T00:12:10.609Z,1001.79
2022-12-15T00:13:10.607Z,1001.83
2022-12-15T00:14:10.606Z,1001.82
2022-12-15T00:15:10.586Z,1001.85
2022-12-15T00:16:10.641Z,1001.85
2022-12-15T00:17:10.585Z,1001.89
2022-12-15T00:18:10.585Z,1001.93
2022-12-15T00:19:10.568Z,1001.93
2022-12-15T00:20:10.556Z,1001.92
2022-12-15T00:21:10.551Z,1001.95
2022-12-15T00:22:10.550Z,1001.96
2022-12-15T00:23:10.533Z,1001.97
2022-12-15T00:24:10.525Z,1001.96
2022-12-15T00:25:10.525Z,1001.94
2022-12-15T00:26:10.519Z,1001.96
2022-12-15T00:27:10.521Z,1001.97
2022-12-15T00:28:10.508Z,1002.01
2022-12-15T00:29:10.481Z,1001.98
2022-12-15T00:30:10.496Z,1002.05
2022-12-15T00:31:10.615Z,1002.04
2022-12-15T00:32:10.482Z,1002.03
2022-12-15T00:33:10.485Z,1002.06
2022-12-15T00:34:10.455Z,1002.05
2022-12-15T00:35:10.462Z,1002.04
2022-12-15T00:36:10.437Z,1002.05
2022-12-15T00:37:10.438Z,1002.12
2022-12-15T00:38:10.425Z,1002.14
2022-12-15T00:39:10.410Z,1002.14
2022-12-15T00:40:10.421Z,1002.18
2022-12-15T00:41:10.404Z,1002.22
2022-12-15T00:42:10.403Z,1002.25
2022-12-15T00:43:10.410Z,1002.26
2022-12-15T00:44:13.381Z,1002.28
2022-12-15T00:45:10.367Z,1002.27
2022-12-15T00:46:10.424Z,1002.23
2022-12-15T00:47:10.380Z,1002.20
2022-12-15T00:48:10.366Z,1002.22
2022-12-15T00:49:10.382Z,1002.19
2022-12-15T00:50:10.369Z,1002.27
2022-12-15T00:51:10.340Z,1002.23
2022-12-15T00:52:10.326Z,1002.26
2022-12-15T00:53:10.309Z,1002.28
2022-12-15T00:54:16.286Z,1002.22
2022-12-15T00:55:10.298Z,1002.24
2022-12-15T00:56:10.309Z,1002.27
2022-12-15T00:57:10.285Z,1002.29
2022-12-15T00:58:10.305Z,1002.26
2022-12-15T00:59:10.271Z,1002.26
2022-12-15T01:00:10.282Z,1002.25
2022-12-15T01:01:10.260Z,1002.26
2022-12-15T01:02:10.372Z,1002.23
2022-12-15T01:03:10.469Z,1002.26
2022-12-15T01:04:10.310Z,1002.26
2022-12-15T01:05:10.266Z,1002.21
2022-12-15T01:06:10.234Z,1002.24
2022-12-15T01:07:10.220Z,1002.24
2022-12-15T01:08:10.226Z,1002.22
2022-12-15T01:09:10.209Z,1002.20
2022-12-15T01:10:10.212Z,1002.21
2022-12-15T01:11:10.192Z,1002.23
2022-12-15T01:12:10.179Z,1002.22
2022-12-15T01:13:10.181Z,1002.33
2022-12-15T01:14:10.183Z,1002.29
2022-12-15T01:15:10.174Z,1002.38
2022-12-15T01:16:10.361Z,1002.40
2022-12-15T01:17:10.178Z,1002.44
2022-12-15T01:18:10.143Z,1002.49
2022-12-15T01:19:10.152Z,1002.46
2022-12-15T01:20:10.125Z,1002.45
2022-12-15T01:21:10.158Z,1002.49
2022-12-15T01:22:10.134Z,1002.47
2022-12-15T01:23:10.105Z,1002.47
2022-12-15T01:24:10.095Z,1002.53
2022-12-15T01:25:10.107Z,1002.51
2022-12-15T01:26:10.101Z,1002.53
2022-12-15T01:27:10.099Z,1002.57
2022-12-15T01:28:10.087Z,1002.59
2022-12-15T01:29:10.065Z,1002.55
2022-12-15T01:30:10.073Z,1002.58
2022-12-15T01:31:10.150Z,1002.58
2022-12-15T01:32:10.046Z,1002.60
2022-12-15T01:33:10.043Z,1002.64
2022-12-15T01:34:10.027Z,1002.66
2022-12-15T01:35:10.024Z,1002.69
2022-12-15T01:36:10.013Z,1002.72
2022-12-15T01:37:10.410Z,1002.77
2022-12-15T01:38:10.012Z,1002.79
2022-12-15T01:39:09.995Z,1002.80
2022-12-15T01:40:09.995Z,1002.82
2022-12-15T01:41:09.985Z,1002.82
2022-12-15T01:42:09.982Z,1002.83
2022-12-15T01:43:09.967Z,1002.80
2022-12-15T01:44:09.968Z,1002.84
2022-12-15T01:45:09.953Z,1002.83
2022-12-15T01:46:09.942Z,1002.86
2022-12-15T01:47:09.993Z,1002.84
2022-12-15T01:48:09.934Z,1002.82
2022-12-15T01:49:09.939Z,1002.79
2022-12-15T01:50:09.929Z,1002.78
2022-12-15T01:51:09.932Z,1002.79
2022-12-15T01:52:09.963Z,1002.83
2022-12-15T01:53:09.934Z,1002.84
2022-12-15T01:54:09.897Z,1002.83
2022-12-15T01:55:09.901Z,1002.84
2022-12-15T01:56:09.882Z,1002.82
2022-12-15T01:57:09.880Z,1002.80
2022-12-15T01:58:09.854Z,1002.77
2022-12-15T01:59:09.875Z,1002.80
2022-12-15T02:00:09.857Z,1002.84
2022-12-15T02:01:09.886Z,1002.81
2022-12-15T02:02:09.983Z,1002.82
2022-12-15T02:03:09.921Z,1002.82
2022-12-15T02:04:09.812Z,1002.86
2022-12-15T02:05:09.828Z,1002.86
2022-12-15T02:06:09.825Z,1002.93
2022-12-15T02:07:09.794Z,1002.93
2022-12-15T02:08:09.796Z,1002.92
2022-12-15T02:09:09.815Z,1002.90
2022-12-15T02:10:09.783Z,1002.88
2022-12-15T02:11:09.768Z,1002.87
2022-12-15T02:12:09.769Z,1002.88
2022-12-15T02:13:09.758Z,1002.88
2022-12-15T02:14:09.755Z,1002.93
2022-12-15T02:15:09.745Z,1002.89
2022-12-15T02:16:09.809Z,1002.94
2022-12-15T02:17:09.727Z,1002.96
2022-12-15T02:18:09.729Z,1003.00
2022-12-15T02:19:09.726Z,1003.03
2022-12-15T02:20:09.705Z,1003.01
2022-12-15T02:21:09.719Z,1003.05
2022-12-15T02:22:09.691Z,1003.02
2022-12-15T02:23:09.684Z,1003.06
2022-12-15T02:24:09.684Z,1003.01
2022-12-15T02:25:09.698Z,1003.02
2022-12-15T02:26:09.674Z,1002.99
2022-12-15T02:27:09.669Z,1002.97
2022-12-15T02:28:09.650Z,1003.05
2022-12-15T02:29:09.664Z,1003.00
2022-12-15T02:30:09.635Z,1002.97
2022-12-15T02:31:09.740Z,1002.98
2022-12-15T02:32:09.718Z,1002.92
2022-12-15T02:33:09.631Z,1002.94
2022-12-15T02:34:09.615Z,1002.95
2022-12-15T02:35:09.601Z,1002.97
2022-12-15T02:36:09.607Z,1002.98
2022-12-15T02:37:09.601Z,1002.97
2022-12-15T02:38:09.591Z,1002.99
2022-12-15T02:39:09.579Z,1003.00
2022-12-15T02:40:09.590Z,1003.07
2022-12-15T02:41:09.590Z,1003.07
2022-12-15T02:42:09.560Z,1003.12
2022-12-15T02:43:09.546Z,1003.16
2022-12-15T02:44:09.553Z,1003.12
2022-12-15T02:45:09.542Z,1003.16
2022-12-15T02:46:09.585Z,1003.13
2022-12-15T02:47:09.516Z,1003.13
2022-12-15T02:48:09.520Z,1003.13
2022-12-15T02:49:09.498Z,1003.15
2022-12-15T02:50:09.505Z,1003.17
2022-12-15T02:51:09.491Z,1003.23
2022-12-15T02:52:09.472Z,1003.15
2022-12-15T02:53:09.484Z,1003.12
2022-12-15T02:54:09.477Z,1003.18
2022-12-15T02:55:09.454Z,1003.12
2022-12-15T02:56:09.467Z,1003.10
2022-12-15T02:57:09.589Z,1003.13
2022-12-15T02:58:09.436Z,1003.09
2022-12-15T02:59:09.448Z,1003.15
2022-12-15T03:00:09.417Z,1003.16
2022-12-15T03:01:09.468Z,1003.18
2022-12-15T03:02:09.600Z,1003.13
2022-12-15T03:03:09.503Z,1003.14
2022-12-15T03:04:09.399Z,1003.12
2022-12-15T03:05:09.400Z,1003.15
2022-12-15T03:06:09.375Z,1003.18
2022-12-15T03:07:09.368Z,1003.20
2022-12-15T03:08:09.359Z,1003.23
2022-12-15T03:09:09.362Z,1003.24
2022-12-15T03:10:09.358Z,1003.21
2022-12-15T03:11:09.340Z,1003.21
2022-12-15T03:12:09.345Z,1003.20
2022-12-15T03:13:09.361Z,1003.22
2022-12-15T03:14:09.338Z,1003.24
2022-12-15T03:15:09.324Z,1003.22
2022-12-15T03:16:09.381Z,1003.24
2022-12-15T03:17:09.310Z,1003.24
2022-12-15T03:18:09.298Z,1003.25
2022-12-15T03:19:09.304Z,1003.30
2022-12-15T03:20:09.287Z,1003.29
2022-12-15T03:21:09.284Z,1003.35
2022-12-15T03:22:09.263Z,1003.33
2022-12-15T03:23:09.268Z,1003.32
2022-12-15T03:24:09.256Z,1003.37
2022-12-15T03:25:09.254Z,1003.34
2022-12-15T03:26:09.229Z,1003.39
2022-12-15T03:27:09.241Z,1003.41
2022-12-15T03:28:09.221Z,1003.45
2022-12-15T03:29:09.251Z,1003.41
2022-12-15T03:30:09.204Z,1003.43
2022-12-15T03:31:09.213Z,1003.49
2022-12-15T03:32:09.258Z,1003.51
2022-12-15T03:33:09.182Z,1003.48
2022-12-15T03:34:09.184Z,1003.49
2022-12-15T03:35:09.183Z,1003.44
2022-12-15T03:36:09.173Z,1003.39
2022-12-15T03:37:09.161Z,1003.35
2022-12-15T03:38:09.157Z,1003.38
2022-12-15T03:39:09.140Z,1003.34
2022-12-15T03:40:09.141Z,1003.36
2022-12-15T03:41:09.143Z,1003.37
2022-12-15T03:42:09.128Z,1003.36
2022-12-15T03:43:09.124Z,1003.40
2022-12-15T03:44:09.095Z,1003.42
2022-12-15T03:45:09.118Z,1003.48
2022-12-15T03:46:09.166Z,1003.45
2022-12-15T03:47:09.096Z,1003.47
2022-12-15T03:48:09.072Z,1003.48
2022-12-15T03:49:09.065Z,1003.49
2022-12-15T03:50:09.069Z,1003.52
2022-12-15T03:51:09.069Z,1003.54
2022-12-15T03:52:09.053Z,1003.55
2022-12-15T03:53:09.039Z,1003.52
2022-12-15T03:54:09.030Z,1003.52
2022-12-15T03:55:09.025Z,1003.50
2022-12-15T03:56:09.008Z,1003.50
2022-12-15T03:57:09.010Z,1003.54
2022-12-15T03:58:09.000Z,1003.53
2022-12-15T03:59:09.002Z,1003.50
2022-12-15T04:00:08.998Z,1003.53
2022-12-15T04:01:09.044Z,1003.51
2022-12-15T04:02:09.170Z,1003.56
2022-12-15T04:03:09.142Z,1003.58
2022-12-15T04:04:08.965Z,1003.63
2022-12-15T04:05:08.964Z,1003.61
2022-12-15T04:06:08.957Z,1003.58
2022-12-15T04:07:08.935Z,1003.55
2022-12-15T04:08:08.934Z,1003.59
2022-12-15T04:09:08.916Z,1003.61
2022-12-15T04:10:08.910Z,1003.59
2022-12-15T04:11:08.925Z,1003.58
2022-12-15T04:12:08.907Z,1003.60
2022-12-15T04:13:08.906Z,1003.64
2022-12-15T04:14:08.902Z,1003.67
2022-12-15T04:15:08.910Z,1003.71
2022-12-15T04:16:08.877Z,1003.68
2022-12-15T04:17:08.961Z,1003.71
2022-12-15T04:18:08.869Z,1003.72
2022-12-15T04:19:08.857Z,1003.75
2022-12-15T04:20:08.838Z,1003.74
2022-12-15T04:21:08.837Z,1003.72
2022-12-15T04:22:10.728Z,1003.64
2022-12-15T04:23:08.818Z,1003.69
2022-12-15T04:24:08.807Z,1003.71
2022-12-15T04:25:08.817Z,1003.72
2022-12-15T04:26:08.791Z,1003.74
2022-12-15T04:27:08.787Z,1003.73
2022-12-15T04:28:08.821Z,1003.72
2022-12-15T04:29:08.799Z,1003.73
2022-12-15T04:30:08.762Z,1003.71
2022-12-15T04:31:08.872Z,1003.69
2022-12-15T04:32:08.762Z,1003.78
2022-12-15T04:33:08.801Z,1003.74
2022-12-15T04:34:08.755Z,1003.73
2022-12-15T04:35:08.731Z,1003.78
2022-12-15T04:36:08.719Z,1003.75
2022-12-15T04:37:08.725Z,1003.69
2022-12-15T04:38:08.702Z,1003.69
2022-12-15T04:39:08.702Z,1003.62
2022-12-15T04:40:08.695Z,1003.69
2022-12-15T04:41:08.695Z,1003.67
2022-12-15T04:42:08.687Z,1003.65
2022-12-15T04:43:08.690Z,1003.66
2022-12-15T04:44:08.686Z,1003.71
2022-12-15T04:45:08.655Z,1003.70
2022-12-15T04:46:08.715Z,1003.70
2022-12-15T04:47:08.659Z,1003.73
2022-12-15T04:48:08.628Z,1003.71
2022-12-15T04:49:08.658Z,1003.73
2022-12-15T04:50:08.627Z,1003.64
2022-12-15T04:51:08.649Z,1003.71
2022-12-15T04:52:08.600Z,1003.68
2022-12-15T04:53:08.596Z,1003.68
2022-12-15T04:54:08.583Z,1003.71
2022-12-15T04:55:08.585Z,1003.71
2022-12-15T04:56:11.428Z,1003.74
2022-12-15T04:57:08.589Z,1003.78
2022-12-15T04:58:08.574Z,1003.75
2022-12-15T04:59:08.550Z,1003.79
2022-12-15T05:00:08.539Z,1003.84
2022-12-15T05:01:08.634Z,1003.87
2022-12-15T05:02:08.717Z,1003.90
2022-12-15T05:03:11.340Z,1003.92
2022-12-15T05:04:08.544Z,1003.95
2022-12-15T05:05:08.536Z,1003.97
2022-12-15T05:06:08.504Z,1004.01
2022-12-15T05:07:08.507Z,1003.99
2022-12-15T05:08:08.487Z,1004.00
2022-12-15T05:09:08.492Z,1003.95
2022-12-15T05:10:14.551Z,1003.97
2022-12-15T05:11:08.473Z,1003.97
2022-12-15T05:12:08.466Z,1003.97
2022-12-15T05:13:08.470Z,1004.00
2022-12-15T05:14:08.450Z,1004.00
2022-12-15T05:15:08.442Z,1003.97
2022-12-15T05:16:08.592Z,1004.03
2022-12-15T05:17:08.540Z,1004.06
2022-12-15T05:18:08.416Z,1004.05
2022-12-15T05:19:08.400Z,1004.03
2022-12-15T05:20:08.396Z,1004.05
2022-12-15T05:21:08.408Z,1004.10
2022-12-15T05:22:08.389Z,1004.12
2022-12-15T05:23:08.387Z,1004.06
2022-12-15T05:24:08.387Z,1004.08
2022-12-15T05:25:08.353Z,1004.05
2022-12-15T05:26:08.365Z,1004.07
2022-12-15T05:27:08.355Z,1004.05
2022-12-15T05:28:08.362Z,1004.12
2022-12-15T05:29:08.333Z,1004.14
2022-12-15T05:30:08.332Z,1004.11
2022-12-15T05:31:08.383Z,1004.11
2022-12-15T05:32:08.314Z,1004.11
2022-12-15T05:33:08.308Z,1004.13
2022-12-15T05:34:08.308Z,1004.07
2022-12-15T05:35:08.295Z,1004.09
2022-12-15T05:36:08.291Z,1004.06
2022-12-15T05:37:08.302Z,1004.03
2022-12-15T05:38:08.258Z,1004.06
2022-12-15T05:39:08.247Z,1004.05
2022-12-15T05:40:08.267Z,1004.08
2022-12-15T05:41:08.234Z,1004.11
2022-12-15T05:42:08.253Z,1004.08
2022-12-15T05:43:08.223Z,1004.10
2022-12-15T05:44:08.226Z,1004.08
2022-12-15T05:45:08.199Z,1004.09
2022-12-15T05:46:08.222Z,1004.13
2022-12-15T05:47:08.222Z,1004.14
2022-12-15T05:48:08.202Z,1004.15
2022-12-15T05:49:08.190Z,1004.17
2022-12-15T05:50:08.188Z,1004.24
2022-12-15T05:51:08.172Z,1004.24
2022-12-15T05:52:08.167Z,1004.21
2022-12-15T05:53:08.170Z,1004.19
2022-12-15T05:54:08.158Z,1004.19
2022-12-15T05:55:08.136Z,1004.16
2022-12-15T05:56:08.140Z,1004.21
2022-12-15T05:57:08.131Z,1004.21
2022-12-15T05:58:08.131Z,1004.22
2022-12-15T05:59:08.115Z,1004.25
2022-12-15T06:00:08.106Z,1004.29
2022-12-15T06:01:08.090Z,1004.32
2022-12-15T06:02:08.203Z,1004.36
2022-12-15T06:03:08.151Z,1004.32
2022-12-15T06:04:08.081Z,1004.30
2022-12-15T06:05:08.155Z,1004.28
2022-12-15T06:06:08.067Z,1004.27
2022-12-15T06:07:08.044Z,1004.25
2022-12-15T06:08:08.042Z,1004.25
2022-12-15T06:09:08.168Z,1004.26
2022-12-15T06:10:08.069Z,1004.28
2022-12-15T06:11:08.027Z,1004.35
2022-12-15T06:12:08.026Z,1004.35
2022-12-15T06:13:08.024Z,1004.40
2022-12-15T06:14:08.004Z,1004.43
2022-12-15T06:15:07.991Z,1004.43
2022-12-15T06:16:08.083Z,1004.38
2022-12-15T06:17:07.996Z,1004.37
2022-12-15T06:18:07.977Z,1004.42
2022-12-15T06:19:07.979Z,1004.40
2022-12-15T06:20:07.974Z,1004.45
2022-12-15T06:21:23.994Z,1004.43
2022-12-15T06:22:07.968Z,1004.44
2022-12-15T06:23:07.957Z,1004.40
2022-12-15T06:24:07.953Z,1004.42
2022-12-15T06:25:07.948Z,1004.45
2022-12-15T06:26:07.941Z,1004.44
2022-12-15T06:27:07.918Z,1004.43
2022-12-15T06:28:07.915Z,1004.40
2022-12-15T06:29:07.901Z,1004.40
2022-12-15T06:30:07.899Z,1004.41
2022-12-15T06:31:07.927Z,1004.43
2022-12-15T06:32:07.889Z,1004.43
2022-12-15T06:33:07.894Z,1004.40
2022-12-15T06:34:07.877Z,1004.44
2022-12-15T06:35:07.879Z,1004.45
2022-12-15T06:36:07.877Z,1004.44
2022-12-15T06:37:07.870Z,1004.41
2022-12-15T06:38:07.856Z,1004.43
2022-12-15T06:39:07.848Z,1004.45
2022-12-15T06:40:07.841Z,1004.46
2022-12-15T06:41:07.857Z,1004.47
2022-12-15T06:42:07.828Z,1004.45
2022-12-15T06:43:07.820Z,1004.55
2022-12-15T06:44:07.817Z,1004.53
2022-12-15T06:45:07.827Z,1004.48
2022-12-15T06:46:07.854Z,1004.54
2022-12-15T06:47:07.845Z,1004.47
2022-12-15T06:48:07.831Z,1004.49
2022-12-15T06:49:07.785Z,1004.45
2022-12-15T06:50:07.784Z,1004.47
2022-12-15T06:51:13.320Z,1004.46
2022-12-15T06:52:07.779Z,1004.47
2022-12-15T06:53:07.758Z,1004.49
2022-12-15T06:54:07.756Z,1004.52
2022-12-15T06:55:07.764Z,1004.56
2022-12-15T06:56:07.757Z,1004.60
2022-12-15T06:57:07.757Z,1004.57
2022-12-15T06:58:07.743Z,1004.61
2022-12-15T06:59:07.743Z,1004.63
2022-12-15T07:00:07.722Z,1004.64
2022-12-15T07:01:07.730Z,1004.68
2022-12-15T07:02:07.875Z,1004.60
2022-12-15T07:03:07.898Z,1004.63
2022-12-15T07:04:07.893Z,1004.60
2022-12-15T07:05:07.706Z,1004.63
2022-12-15T07:06:07.702Z,1004.62
2022-12-15T07:07:07.677Z,1004.56
2022-12-15T07:08:07.675Z,1004.60
2022-12-15T07:09:07.683Z,1004.59
2022-12-15T07:10:07.678Z,1004.63
2022-12-15T07:11:07.656Z,1004.57
2022-12-15T07:12:07.678Z,1004.57
2022-12-15T07:13:07.674Z,1004.55
2022-12-15T07:14:07.669Z,1004.56
2022-12-15T07:15:07.651Z,1004.56
2022-12-15T07:16:07.762Z,1004.59
2022-12-15T07:17:07.628Z,1004.55
2022-12-15T07:18:07.638Z,1004.53
2022-12-15T07:19:07.639Z,1004.54
2022-12-15T07:20:07.632Z,1004.60
2022-12-15T07:21:07.598Z,1004.60
2022-12-15T07:22:07.597Z,1004.61
2022-12-15T07:23:07.603Z,1004.61
2022-12-15T07:24:08.414Z,1004.64
2022-12-15T07:25:07.593Z,1004.67
2022-12-15T07:26:11.458Z,1004.69
2022-12-15T07:27:07.582Z,1004.63
2022-12-15T07:28:07.587Z,1004.66
2022-12-15T07:29:07.586Z,1004.69
2022-12-15T07:30:07.580Z,1004.68
2022-12-15T07:31:07.683Z,1004.68
2022-12-15T07:32:07.632Z,1004.69
2022-12-15T07:33:07.536Z,1004.68
2022-12-15T07:34:07.554Z,1004.68
2022-12-15T07:35:07.541Z,1004.70
2022-12-15T07:36:07.534Z,1004.73
2022-12-15T07:37:07.510Z,1004.72
2022-12-15T07:38:07.507Z,1004.74
2022-12-15T07:39:08.406Z,1004.76
2022-12-15T07:40:07.509Z,1004.77
2022-12-15T07:41:07.499Z,1004.75
2022-12-15T07:42:07.498Z,1004.76
2022-12-15T07:43:07.496Z,1004.75
2022-12-15T07:44:07.477Z,1004.77
2022-12-15T07:45:07.498Z,1004.79
2022-12-15T07:46:07.521Z,1004.75
2022-12-15T07:47:07.450Z,1004.77
2022-12-15T07:48:07.471Z,1004.73
2022-12-15T07:49:07.449Z,1004.74
2022-12-15T07:50:07.452Z,1004.75
2022-12-15T07:51:12.436Z,1004.70
2022-12-15T07:52:07.426Z,1004.65
2022-12-15T07:53:07.430Z,1004.62
2022-12-15T07:54:07.434Z,1004.57
2022-12-15T07:55:07.415Z,1004.56
2022-12-15T07:56:09.272Z,1004.59
2022-12-15T07:57:07.389Z,1004.61
2022-12-15T07:58:07.408Z,1004.69
2022-12-15T07:59:07.389Z,1004.70
2022-12-15T08:00:07.401Z,1004.74
2022-12-15T08:01:07.735Z,1004.78
2022-12-15T08:02:07.520Z,1004.81
2022-12-15T08:03:07.498Z,1004.81
2022-12-15T08:04:07.415Z,1004.83
2022-12-15T08:05:07.354Z,1004.87
2022-12-15T08:06:07.359Z,1004.90
2022-12-15T08:07:07.347Z,1004.94
2022-12-15T08:08:10.919Z,1004.94
2022-12-15T08:09:07.332Z,1004.94
2022-12-15T08:10:07.314Z,1005.01
2022-12-15T08:11:07.305Z,1004.98
2022-12-15T08:12:07.324Z,1004.95
2022-12-15T08:13:07.335Z,1004.98
2022-12-15T08:14:13.313Z,1005.00
2022-12-15T08:15:07.294Z,1005.00
2022-12-15T08:16:07.335Z,1004.98
2022-12-15T08:17:07.426Z,1005.07
2022-12-15T08:18:07.280Z,1005.08
2022-12-15T08:19:07.255Z,1005.09
2022-12-15T08:20:10.078Z,1005.13
2022-12-15T08:21:07.243Z,1005.17
2022-12-15T08:22:07.251Z,1005.17
2022-12-15T08:23:07.243Z,1005.16
2022-12-15T08:24:07.238Z,1005.16
2022-12-15T08:25:07.270Z,1005.13
2022-12-15T08:26:07.227Z,1005.10
2022-12-15T08:27:07.206Z,1005.07
2022-12-15T08:28:07.219Z,1005.10
2022-12-15T08:30:07.191Z,1005.12
2022-12-15T08:31:07.192Z,1005.09
2022-12-15T08:32:07.228Z,1005.13
2022-12-15T08:33:07.203Z,1005.11
2022-12-15T08:34:07.176Z,1005.14
2022-12-15T08:35:25.394Z,1005.14
2022-12-15T08:36:07.151Z,1005.16
2022-12-15T08:37:07.147Z,1005.18
2022-12-15T08:38:07.139Z,1005.17
2022-12-15T08:39:07.142Z,1005.23
2022-12-15T08:40:07.132Z,1005.29
2022-12-15T08:41:07.127Z,1005.22
2022-12-15T08:42:07.150Z,1005.21
2022-12-15T08:43:07.101Z,1005.25
2022-12-15T08:44:07.098Z,1005.27
2022-12-15T08:45:07.086Z,1005.19
2022-12-15T08:46:07.159Z,1005.21
2022-12-15T08:47:07.122Z,1005.23
2022-12-15T08:48:07.090Z,1005.28
2022-12-15T08:49:07.100Z,1005.26
2022-12-15T08:50:07.072Z,1005.33
2022-12-15T08:51:07.051Z,1005.36
2022-12-15T08:52:07.052Z,1005.42
2022-12-15T08:53:30.323Z,1005.43
2022-12-15T08:54:07.049Z,1005.38
2022-12-15T08:55:07.033Z,1005.39
2022-12-15T08:56:07.057Z,1005.38
2022-12-15T08:57:07.024Z,1005.37
2022-12-15T08:58:07.012Z,1005.40
2022-12-15T08:59:07.006Z,1005.41
2022-12-15T09:00:07.008Z,1005.39
2022-12-15T09:01:07.117Z,1005.37
2022-12-15T09:02:07.223Z,1005.44
2022-12-15T09:03:06.985Z,1005.44
2022-12-15T09:04:07.050Z,1005.42
2022-12-15T09:05:06.981Z,1005.43
2022-12-15T09:06:07.040Z,1005.42
2022-12-15T09:07:06.968Z,1005.42
2022-12-15T09:08:07.080Z,1005.42
2022-12-15T09:09:06.939Z,1005.46
2022-12-15T09:10:07.182Z,1005.45
2022-12-15T09:11:06.930Z,1005.48
2022-12-15T09:12:06.916Z,1005.49
2022-12-15T09:13:06.921Z,1005.50
2022-12-15T09:14:06.926Z,1005.59
2022-12-15T09:15:06.909Z,1005.62
2022-12-15T09:16:11.587Z,1005.68
2022-12-15T09:17:06.923Z,1005.69
2022-12-15T09:18:06.899Z,1005.70
2022-12-15T09:19:06.882Z,1005.72
2022-12-15T09:20:06.875Z,1005.73
2022-12-15T09:21:07.012Z,1005.76
2022-12-15T09:22:06.883Z,1005.77
2022-12-15T09:23:06.836Z,1005.76
2022-12-15T09:24:06.839Z,1005.75
2022-12-15T09:25:06.825Z,1005.75
2022-12-15T09:26:06.849Z,1005.75
2022-12-15T09:27:06.814Z,1005.81
2022-12-15T09:28:06.810Z,1005.79
2022-12-15T09:29:06.814Z,1005.81
2022-12-15T09:30:06.800Z,1005.87
2022-12-15T09:31:06.861Z,1005.87
2022-12-15T09:32:13.616Z,1005.92
2022-12-15T09:33:06.776Z,1005.86
2022-12-15T09:34:06.780Z,1005.88
2022-12-15T09:35:06.771Z,1005.86
2022-12-15T09:36:06.760Z,1005.84
2022-12-15T09:37:06.779Z,1005.85
2022-12-15T09:38:06.753Z,1005.78
2022-12-15T09:39:06.739Z,1005.79
2022-12-15T09:40:06.744Z,1005.84
2022-12-15T09:41:06.725Z,1005.83
2022-12-15T09:42:06.718Z,1005.92
2022-12-15T09:43:33.561Z,1005.92
2022-12-15T09:44:06.699Z,1005.94
2022-12-15T09:45:06.706Z,1005.95
2022-12-15T09:46:06.762Z,1005.96
2022-12-15T09:47:06.700Z,1005.91
2022-12-15T09:48:06.694Z,1005.98
2022-12-15T09:49:06.692Z,1005.97
2022-12-15T09:50:06.667Z,1005.93
2022-12-15T09:51:06.672Z,1005.96
2022-12-15T09:52:11.007Z,1005.96
2022-12-15T09:53:17.929Z,1005.96
2022-12-15T09:54:06.993Z,1006.03
2022-12-15T09:55:06.702Z,1006.00
2022-12-15T09:56:06.627Z,1006.01
2022-12-15T09:57:06.618Z,1006.05
2022-12-15T09:58:10.909Z,1006.07
2022-12-15T09:59:06.616Z,1006.08
2022-12-15T10:00:06.615Z,1006.10
2022-12-15T10:01:06.638Z,1006.18
2022-12-15T10:02:06.847Z,1006.11
2022-12-15T10:03:06.722Z,1006.16
2022-12-15T10:04:06.756Z,1006.12
2022-12-15T10:05:06.614Z,1006.14
2022-12-15T10:06:23.896Z,1006.12
2022-12-15T10:07:06.563Z,1006.09
2022-12-15T10:08:06.546Z,1006.08
2022-12-15T10:09:06.563Z,1006.14
2022-12-15T10:10:06.529Z,1006.09
2022-12-15T10:11:06.553Z,1006.15
2022-12-15T10:12:06.540Z,1006.19
2022-12-15T10:13:06.525Z,1006.17
2022-12-15T10:14:06.520Z,1006.17
2022-12-15T10:15:06.518Z,1006.16
2022-12-15T10:16:06.560Z,1006.21
2022-12-15T10:17:06.518Z,1006.19
2022-12-15T10:18:06.494Z,1006.18
2022-12-15T10:19:06.462Z,1006.16
2022-12-15T10:20:06.457Z,1006.15
2022-12-15T10:21:06.481Z,1006.15
2022-12-15T10:22:06.460Z,1006.23
2022-12-15T10:23:06.478Z,1006.16
2022-12-15T10:24:06.521Z,1006.13
2022-12-15T10:25:10.832Z,1006.15
2022-12-15T10:26:06.457Z,1006.11
2022-12-15T10:27:06.415Z,1006.06
2022-12-15T10:28:06.430Z,1006.03
2022-12-15T10:29:06.417Z,1006.01
2022-12-15T10:30:06.519Z,1005.99
2022-12-15T10:31:06.471Z,1005.97
2022-12-15T10:32:06.381Z,1006.00
2022-12-15T10:33:06.432Z,1005.99
2022-12-15T10:34:06.386Z,1006.02
2022-12-15T10:35:06.472Z,1005.98
2022-12-15T10:36:06.394Z,1005.97
2022-12-15T10:37:06.385Z,1006.02
2022-12-15T10:38:06.375Z,1005.97
2022-12-15T10:39:06.376Z,1005.93
2022-12-15T10:40:06.335Z,1005.88
2022-12-15T10:41:06.394Z,1005.83
2022-12-15T10:42:06.323Z,1005.85
2022-12-15T10:43:06.312Z,1005.83
2022-12-15T10:44:06.301Z,1005.81
2022-12-15T10:45:06.285Z,1005.82
2022-12-15T10:46:06.419Z,1005.82
2022-12-15T10:47:06.284Z,1005.84
2022-12-15T10:48:06.263Z,1005.89
2022-12-15T10:49:06.261Z,1005.91
2022-12-15T10:50:06.267Z,1005.89
2022-12-15T10:51:06.277Z,1005.85
2022-12-15T10:52:06.245Z,1005.81
2022-12-15T10:53:06.253Z,1005.82
2022-12-15T10:54:06.246Z,1005.80
2022-12-15T10:55:06.228Z,1005.80
2022-12-15T10:56:06.221Z,1005.78
2022-12-15T10:57:06.262Z,1005.82
2022-12-15T10:58:06.224Z,1005.85
2022-12-15T10:59:06.212Z,1005.86
2022-12-15T11:00:06.197Z,1005.88
2022-12-15T11:01:06.265Z,1005.86
2022-12-15T11:02:06.386Z,1005.88
2022-12-15T11:03:06.467Z,1005.89
2022-12-15T11:04:06.280Z,1005.89
2022-12-15T11:05:06.161Z,1005.86
2022-12-15T11:06:06.134Z,1005.87
2022-12-15T11:07:06.138Z,1005.88
2022-12-15T11:08:10.689Z,1005.90
2022-12-15T11:09:06.121Z,1005.90
2022-12-15T11:10:06.114Z,1005.90
2022-12-15T11:11:07.729Z,1005.90
2022-12-15T11:12:06.266Z,1005.89
2022-12-15T11:13:06.138Z,1005.89
2022-12-15T11:14:06.099Z,1005.85
2022-12-15T11:15:06.093Z,1005.86
2022-12-15T11:16:06.077Z,1005.85
2022-12-15T11:17:06.069Z,1005.84
2022-12-15T11:18:06.065Z,1005.88
2022-12-15T11:19:06.065Z,1005.89
2022-12-15T11:20:06.050Z,1005.85
2022-12-15T11:21:06.054Z,1005.85
2022-12-15T11:22:06.032Z,1005.88
2022-12-15T11:23:06.025Z,1005.84
2022-12-15T11:24:06.018Z,1005.83
2022-12-15T11:25:06.030Z,1005.86
2022-12-15T11:26:07.131Z,1005.81
2022-12-15T11:27:05.993Z,1005.85
2022-12-15T11:28:05.983Z,1005.85
2022-12-15T11:29:06.004Z,1005.86
2022-12-15T11:30:05.991Z,1005.82
2022-12-15T11:31:05.972Z,1005.85
2022-12-15T11:33:05.989Z,1005.88
2022-12-15T11:34:05.958Z,1005.86
2022-12-15T11:35:05.938Z,1005.87
2022-12-15T11:36:05.932Z,1005.88
2022-12-15T11:37:05.926Z,1005.90
2022-12-15T11:38:05.914Z,1005.87
2022-12-15T11:39:05.983Z,1005.83
2022-12-15T11:40:05.909Z,1005.84
2022-12-15T11:41:05.912Z,1005.80
2022-12-15T11:42:05.911Z,1005.81
2022-12-15T11:43:05.883Z,1005.84
2022-12-15T11:44:06.612Z,1005.77
2022-12-15T11:45:05.896Z,1005.82
2022-12-15T11:46:05.874Z,1005.79
2022-12-15T11:47:05.860Z,1005.80
2022-12-15T11:48:05.845Z,1005.83
2022-12-15T11:49:05.861Z,1005.84
2022-12-15T11:50:05.837Z,1005.81
2022-12-15T11:51:05.854Z,1005.80
2022-12-15T11:52:05.819Z,1005.81
2022-12-15T11:53:05.813Z,1005.77
2022-12-15T11:54:05.821Z,1005.78
2022-12-15T11:55:05.821Z,1005.71
2022-12-15T11:56:05.792Z,1005.76
2022-12-15T11:57:05.789Z,1005.74
2022-12-15T11:58:05.788Z,1005.71
2022-12-15T11:59:05.768Z,1005.74
2022-12-15T12:00:05.763Z,1005.71
2022-12-15T12:01:05.793Z,1005.70
2022-12-15T12:02:05.835Z,1005.70
2022-12-15T12:03:05.842Z,1005.66
2022-12-15T12:04:05.748Z,1005.66
2022-12-15T12:05:05.730Z,1005.65
2022-12-15T12:06:05.720Z,1005.58
2022-12-15T12:07:05.718Z,1005.62